createdAt,value
2022-09-28T00:00:41.125Z,94207.00
2022-09-28T00:04:43.814Z,94197.00
2022-09-28T00:08:46.569Z,94189.00
2022-09-28T00:12:49.312Z,94161.00
2022-09-28T00:16:53.369Z,94156.00
2022-09-28T00:21:04.650Z,94158.00
2022-09-28T00:25:08.302Z,94157.00
2022-09-28T00:29:17.516Z,94126.00
2022-09-28T00:33:22.265Z,94126.00
2022-09-28T00:37:24.945Z,94120.00
2022-09-28T00:41:29.581Z,94124.00
2022-09-28T00:45:32.438Z,94115.00
2022-09-28T00:49:41.740Z,94104.00
2022-09-28T00:53:45.379Z,94108.00
2022-09-28T00:57:51.572Z,94097.00
2022-09-28T01:01:54.308Z,94087.00
2022-09-28T01:06:02.179Z,94082.00
2022-09-28T01:10:06.825Z,94082.00
2022-09-28T01:14:12.845Z,94069.00
2022-09-28T01:18:20.877Z,94061.00
2022-09-28T01:22:39.657Z,94066.00
2022-09-28T01:26:53.648Z,94049.00
2022-09-28T01:31:07.577Z,94041.00
2022-09-28T01:35:15.353Z,94027.00
2022-09-28T01:39:24.247Z,94032.00
2022-09-28T01:43:30.431Z,94007.00
2022-09-28T01:47:38.717Z,94006.00
2022-09-28T01:51:44.678Z,93990.00
2022-09-28T01:55:51.589Z,93980.00
2022-09-28T02:00:00.835Z,93963.00
2022-09-28T02:04:11.091Z,93968.00
2022-09-28T02:08:20.786Z,93954.00
2022-09-28T02:12:34.525Z,93949.00
2022-09-28T02:16:41.383Z,93926.00
2022-09-28T02:20:53.393Z,93933.00
2022-09-28T02:24:59.684Z,93911.00
2022-09-28T02:29:05.029Z,93904.00
2022-09-28T02:33:13.700Z,93906.00
2022-09-28T02:37:16.554Z,93904.00
2022-09-28T02:41:27.856Z,93892.00
2022-09-28T02:45:43.085Z,93894.00
2022-09-28T02:49:53.554Z,93865.00
2022-09-28T02:54:13.414Z,93863.00
2022-09-28T02:58:26.145Z,93860.00
2022-09-28T03:02:35.739Z,93860.00
2022-09-28T03:06:46.775Z,93854.00
2022-09-28T03:10:54.055Z,93851.00
2022-09-28T03:15:20.155Z,93853.00
2022-09-28T03:19:27.178Z,93853.00
2022-09-28T03:23:31.085Z,93845.00
2022-09-28T03:27:34.031Z,93840.00
2022-09-28T03:31:37.925Z,93845.00
2022-09-28T03:35:40.725Z,93830.00
2022-09-28T03:39:44.830Z,93838.00
2022-09-28T03:43:47.657Z,93829.00
2022-09-28T03:47:50.419Z,93828.00
2022-09-28T03:51:54.721Z,93828.00
2022-09-28T03:56:04.285Z,93807.00
2022-09-28T04:00:09.009Z,93821.00
2022-09-28T04:04:17.299Z,93817.00
2022-09-28T04:08:21.215Z,93808.00
2022-09-28T04:12:26.305Z,93802.00
2022-09-28T04:16:29.362Z,93801.00
2022-09-28T04:21:06.440Z,93805.00
2022-09-28T04:25:13.099Z,93795.00
2022-09-28T04:29:17.294Z,93806.00
2022-09-28T04:33:24.279Z,93797.00
2022-09-28T04:37:27.537Z,93795.00
2022-09-28T04:41:30.270Z,93796.00
2022-09-28T04:45:34.485Z,93787.00
2022-09-28T04:49:43.619Z,93797.00
2022-09-28T04:53:51.085Z,93794.00
2022-09-28T04:57:54.593Z,93809.00
2022-09-28T05:01:58.706Z,93814.00
2022-09-28T05:06:04.753Z,93816.00
2022-09-28T05:10:21.236Z,93793.00
2022-09-28T05:14:24.388Z,93801.00
2022-09-28T05:18:29.368Z,93793.00
2022-09-28T05:22:38.137Z,93791.00
2022-09-28T05:26:43.738Z,93771.00
2022-09-28T05:30:47.390Z,93764.00
2022-09-28T05:35:08.239Z,93771.00
2022-09-28T05:39:17.514Z,93763.00
2022-09-28T05:43:21.166Z,93764.00
2022-09-28T05:47:23.931Z,93750.00
2022-09-28T05:51:28.207Z,93746.00
2022-09-28T05:55:31.535Z,93736.00
2022-09-28T05:59:36.083Z,93728.00
2022-09-28T06:03:38.871Z,93724.00
2022-09-28T06:07:44.222Z,93730.00
2022-09-28T06:11:47.019Z,93733.00
2022-09-28T06:16:18.645Z,93719.00
2022-09-28T06:20:21.594Z,93722.00
2022-09-28T06:24:45.495Z,93741.00
2022-09-28T06:28:48.339Z,93745.00
2022-09-28T06:32:54.940Z,93730.00
2022-09-28T06:36:57.943Z,93741.00
2022-09-28T06:41:02.706Z,93738.00
2022-09-28T06:45:06.787Z,93733.00
2022-09-28T06:49:19.990Z,93722.00
2022-09-28T06:53:42.825Z,93731.00
2022-09-28T06:58:00.134Z,93725.00
2022-09-28T07:02:02.854Z,93725.00
2022-09-28T07:06:32.466Z,93738.00
2022-09-28T07:10:56.175Z,93750.00
2022-09-28T07:15:09.030Z,93749.00
2022-09-28T07:19:11.756Z,93750.00
2022-09-28T07:23:19.238Z,93755.00
2022-09-28T07:27:59.526Z,93762.00
2022-09-28T07:32:40.112Z,93768.00
2022-09-28T07:37:02.520Z,93765.00
2022-09-28T07:41:16.803Z,93777.00
2022-09-28T07:45:24.495Z,93767.00
2022-09-28T07:49:28.758Z,93775.00
2022-09-28T07:53:49.040Z,93773.00
2022-09-28T07:58:09.849Z,93781.00
2022-09-28T08:02:32.302Z,93773.00
2022-09-28T08:06:36.767Z,93785.00
2022-09-28T08:10:46.974Z,93785.00
2022-09-28T08:15:00.071Z,93783.00
2022-09-28T08:19:11.122Z,93785.00
2022-09-28T08:23:15.207Z,93796.00
2022-09-28T08:27:18.322Z,93787.00
2022-09-28T08:31:21.108Z,93811.00
2022-09-28T08:35:43.851Z,93815.00
2022-09-28T08:40:19.470Z,93820.00
2022-09-28T08:49:25.040Z,93831.00
2022-09-28T08:53:57.806Z,93844.00
2022-09-28T08:58:13.338Z,93867.00
2022-09-28T09:02:22.338Z,93909.00
2022-09-28T09:06:34.362Z,93923.00
2022-09-28T09:11:02.855Z,93910.00
2022-09-28T09:15:26.472Z,93919.00
2022-09-28T09:19:36.212Z,93914.00
2022-09-28T09:23:57.416Z,93909.00
2022-09-28T09:28:25.091Z,93920.00
2022-09-28T09:32:54.161Z,93920.00
2022-09-28T09:37:09.714Z,93925.00
2022-09-28T09:41:38.943Z,93929.00
2022-09-28T09:46:07.948Z,93963.00
2022-09-28T09:50:29.619Z,93954.00
2022-09-28T09:54:37.835Z,93945.00
2022-09-28T09:58:47.961Z,93943.00
2022-09-28T10:02:55.941Z,93943.00
2022-09-28T10:07:19.832Z,93945.00
2022-09-28T10:11:28.147Z,93953.00
2022-09-28T10:15:33.830Z,93954.00
2022-09-28T10:19:47.831Z,93970.00
2022-09-28T10:24:18.180Z,93952.00
2022-09-28T10:28:31.540Z,93958.00
2022-09-28T10:32:39.383Z,93968.00
2022-09-28T10:36:50.362Z,93970.00
2022-09-28T10:40:56.704Z,93981.00
2022-09-28T10:45:21.053Z,93976.00
2022-09-28T10:49:25.819Z,93989.00
2022-09-28T10:53:33.056Z,93983.00
2022-09-28T10:57:40.759Z,93973.00
2022-09-28T11:01:45.296Z,93978.00
2022-09-28T11:05:57.322Z,93984.00
2022-09-28T11:10:04.034Z,93968.00
2022-09-28T11:14:27.148Z,93968.00
2022-09-28T11:18:34.349Z,93988.00
2022-09-28T11:22:44.278Z,93995.00
2022-09-28T11:26:50.383Z,93988.00
2022-09-28T11:30:59.183Z,93993.00
2022-09-28T11:35:23.909Z,93983.00
2022-09-28T11:39:35.695Z,93974.00
2022-09-28T11:43:57.790Z,93984.00
2022-09-28T11:48:05.646Z,93987.00
2022-09-28T11:52:17.580Z,93997.00
2022-09-28T11:56:32.118Z,94006.00
2022-09-28T12:00:41.040Z,93996.00
2022-09-28T12:04:49.731Z,93987.00
2022-09-28T12:08:59.498Z,93996.00
2022-09-28T12:13:25.334Z,94000.00
2022-09-28T12:17:33.686Z,93994.00
2022-09-28T12:21:44.952Z,94001.00
2022-09-28T12:25:52.676Z,94002.00
2022-09-28T12:30:03.078Z,93999.00
2022-09-28T12:34:06.663Z,94010.00
2022-09-28T12:38:25.757Z,94012.00
2022-09-28T12:42:46.386Z,94007.00
2022-09-28T12:47:05.451Z,94001.00
2022-09-28T12:51:19.406Z,94001.00
2022-09-28T12:55:40.477Z,94013.00
2022-09-28T12:59:52.951Z,94005.00
2022-09-28T13:04:14.300Z,94008.00
2022-09-28T13:08:25.945Z,94026.00
2022-09-28T13:12:44.002Z,94006.00
2022-09-28T13:16:58.395Z,94006.00
2022-09-28T13:21:14.948Z,93997.00
2022-09-28T13:25:21.537Z,93995.00
2022-09-28T13:29:26.936Z,94002.00
2022-09-28T13:33:36.783Z,93986.00
2022-09-28T13:37:40.642Z,93999.00
2022-09-28T13:41:50.580Z,94010.00
2022-09-28T13:45:58.599Z,94016.00
2022-09-28T13:50:14.332Z,94015.00
2022-09-28T13:54:30.139Z,94015.00
2022-09-28T13:58:39.319Z,94004.00
2022-09-28T14:02:47.749Z,94002.00
2022-09-28T14:06:55.626Z,93997.00
2022-09-28T14:11:19.259Z,94006.00
2022-09-28T14:15:46.591Z,94005.00
2022-09-28T14:19:56.425Z,94003.00
2022-09-28T14:24:16.403Z,94004.00
2022-09-28T14:28:43.225Z,94001.00
2022-09-28T14:32:53.424Z,94001.00
2022-09-28T14:37:14.817Z,94002.00
2022-09-28T14:41:34.121Z,94008.00
2022-09-28T14:45:38.251Z,94006.00
2022-09-28T14:49:51.186Z,94010.00
2022-09-28T14:54:00.247Z,94007.00
2022-09-28T14:58:04.579Z,94012.00
2022-09-28T15:02:15.069Z,94013.00
2022-09-28T15:06:19.626Z,94011.00
2022-09-28T15:10:28.175Z,94014.00
2022-09-28T15:14:32.847Z,94018.00
2022-09-28T15:19:13.274Z,94003.00
2022-09-28T15:23:27.858Z,94011.00
2022-09-28T15:27:37.926Z,94023.00
2022-09-28T15:31:40.611Z,94023.00
2022-09-28T15:35:43.668Z,94016.00
2022-09-28T15:39:48.051Z,94027.00
2022-09-28T15:44:08.391Z,94031.00
2022-09-28T15:48:31.882Z,94037.00
2022-09-28T15:52:38.770Z,94045.00
2022-09-28T15:56:52.866Z,94045.00
2022-09-28T16:01:28.448Z,94044.00
2022-09-28T16:05:40.430Z,94049.00
2022-09-28T16:09:54.996Z,94049.00
2022-09-28T16:14:05.937Z,94055.00
2022-09-28T16:18:20.391Z,94058.00
2022-09-28T16:22:28.122Z,94055.00
2022-09-28T16:26:34.136Z,94046.00
2022-09-28T16:30:36.923Z,94047.00
2022-09-28T16:34:41.007Z,94039.00
2022-09-28T16:38:45.371Z,94034.00
2022-09-28T16:42:49.287Z,94026.00
2022-09-28T16:46:55.019Z,94026.00
2022-09-28T16:50:59.767Z,94042.00
2022-09-28T16:59:40.314Z,94037.00
2022-09-28T17:03:46.672Z,94043.00
2022-09-28T17:08:00.195Z,94039.00
2022-09-28T17:12:03.098Z,94039.00
2022-09-28T17:16:10.376Z,94044.00
2022-09-28T17:20:22.361Z,94044.00
2022-09-28T17:24:26.491Z,94039.00
2022-09-28T17:28:32.728Z,94043.00
2022-09-28T17:32:35.522Z,94042.00
2022-09-28T17:36:38.623Z,94041.00
2022-09-28T17:40:43.859Z,94036.00
2022-09-28T17:44:46.603Z,94044.00
2022-09-28T17:48:49.698Z,94043.00
2022-09-28T17:52:53.713Z,94053.00
2022-09-28T17:56:58.156Z,94049.00
2022-09-28T18:01:00.843Z,94054.00
2022-09-28T18:05:03.561Z,94055.00
2022-09-28T18:09:06.366Z,94052.00
2022-09-28T18:13:10.897Z,94055.00
2022-09-28T18:17:13.733Z,94067.00
2022-09-28T18:21:16.541Z,94065.00
2022-09-28T18:25:19.481Z,94068.00
2022-09-28T18:29:23.563Z,94077.00
2022-09-28T18:33:26.243Z,94089.00
2022-09-28T18:37:28.935Z,94085.00
2022-09-28T18:41:31.655Z,94092.00
2022-09-28T18:45:36.699Z,94097.00
2022-09-28T18:49:41.660Z,94101.00
2022-09-28T18:53:47.967Z,94108.00
2022-09-28T18:57:51.380Z,94110.00
2022-09-28T19:01:55.552Z,94113.00
2022-09-28T19:05:58.311Z,94110.00
2022-09-28T19:10:01.058Z,94110.00
2022-09-28T19:14:04.384Z,94115.00
2022-09-28T19:18:08.471Z,94125.00
2022-09-28T19:22:11.159Z,94124.00
2022-09-28T19:26:15.519Z,94127.00
2022-09-28T19:30:18.235Z,94137.00
2022-09-28T19:34:24.288Z,94128.00
2022-09-28T19:38:29.553Z,94147.00
2022-09-28T19:42:32.342Z,94153.00
2022-09-28T19:46:35.238Z,94158.00
2022-09-28T19:50:39.618Z,94158.00
2022-09-28T19:54:44.372Z,94164.00
2022-09-28T19:58:47.063Z,94178.00
2022-09-28T20:02:49.804Z,94188.00
2022-09-28T20:06:53.949Z,94189.00
2022-09-28T20:10:59.541Z,94201.00
2022-09-28T20:15:02.250Z,94191.00
2022-09-28T20:19:08.575Z,94197.00
2022-09-28T20:23:13.255Z,94189.00
2022-09-28T20:27:16.025Z,94196.00
2022-09-28T20:31:20.404Z,94200.00
2022-09-28T20:35:32.699Z,94194.00
2022-09-28T20:39:40.363Z,94197.00
2022-09-28T20:43:46.610Z,94198.00
2022-09-28T20:47:49.298Z,94203.00
2022-09-28T20:51:51.979Z,94210.00
2022-09-28T20:56:04.872Z,94217.00
2022-09-28T21:00:10.003Z,94214.00
2022-09-28T21:04:12.895Z,94210.00
2022-09-28T21:08:15.678Z,94215.00
2022-09-28T21:12:19.742Z,94214.00
2022-09-28T21:16:22.557Z,94211.00
2022-09-28T21:20:25.247Z,94211.00
2022-09-28T21:24:27.912Z,94212.00
2022-09-28T21:28:32.015Z,94194.00
2022-09-28T21:32:35.251Z,94198.00
2022-09-28T21:36:38.334Z,94202.00
2022-09-28T21:40:41.838Z,94206.00
2022-09-28T21:44:45.901Z,94191.00
2022-09-28T21:48:52.347Z,94195.00
2022-09-28T21:52:56.624Z,94189.00
2022-09-28T21:57:01.298Z,94203.00
2022-09-28T22:01:07.898Z,94198.00
2022-09-28T22:05:12.540Z,94198.00
2022-09-28T22:09:15.276Z,94198.00
2022-09-28T22:13:17.955Z,94199.00
2022-09-28T22:17:22.046Z,94208.00
2022-09-28T22:21:26.821Z,94201.00
2022-09-28T22:25:29.485Z,94215.00
2022-09-28T22:29:32.193Z,94211.00
2022-09-28T22:33:36.230Z,94221.00
2022-09-28T22:37:38.919Z,94214.00
2022-09-28T22:41:41.706Z,94215.00
2022-09-28T22:45:44.390Z,94212.00
2022-09-28T22:49:48.478Z,94210.00
2022-09-28T22:53:51.218Z,94211.00
2022-09-28T22:57:53.896Z,94211.00
2022-09-28T23:01:56.616Z,94206.00
2022-09-28T23:06:00.679Z,94196.00
2022-09-28T23:10:03.365Z,94199.00
2022-09-28T23:14:06.552Z,94197.00
2022-09-28T23:18:09.434Z,94192.00
2022-09-28T23:22:13.507Z,94200.00
2022-09-28T23:26:18.099Z,94195.00
2022-09-28T23:30:21.211Z,94187.00
2022-09-28T23:34:23.990Z,94186.00
2022-09-28T23:38:28.127Z,94188.00
2022-09-28T23:42:30.835Z,94181.00
2022-09-28T23:46:33.554Z,94176.00
2022-09-28T23:50:36.304Z,94173.00
2022-09-28T23:54:40.359Z,94177.00
2022-09-28T23:58:43.398Z,94183.00
